createdAt,value
2018-12-05T00:01:16.135Z,0.17
2018-12-05T00:03:42.249Z,0.18
2018-12-05T00:06:08.540Z,0.16
2018-12-05T00:08:34.683Z,0.17
2018-12-05T00:11:00.810Z,0.14
2018-12-05T00:13:26.931Z,0.16
2018-12-05T00:15:53.073Z,0.16
2018-12-05T00:18:19.250Z,0.15
2018-12-05T00:20:45.376Z,0.13
2018-12-05T00:23:11.553Z,0.14
2018-12-05T00:25:37.666Z,0.13
2018-12-05T00:28:03.815Z,0.12
2018-12-05T00:30:29.937Z,0.13
2018-12-05T00:32:56.069Z,0.12
2018-12-05T00:35:22.187Z,0.11
2018-12-05T00:37:48.328Z,0.11
2018-12-05T00:40:14.475Z,0.12
2018-12-05T00:42:40.612Z,0.12
2018-12-05T00:45:06.884Z,0.12
2018-12-05T00:47:33.146Z,0.12
2018-12-05T00:49:59.283Z,0.10
2018-12-05T00:52:25.414Z,0.10
2018-12-05T00:54:51.579Z,0.11
2018-12-05T00:57:17.715Z,0.10
2018-12-05T00:59:43.867Z,0.11
2018-12-05T01:02:10.050Z,0.08
2018-12-05T01:04:36.185Z,0.10
2018-12-05T01:07:02.542Z,0.09
2018-12-05T01:09:28.701Z,0.11
2018-12-05T01:11:54.838Z,0.10
2018-12-05T01:14:20.993Z,0.08
2018-12-05T01:16:47.111Z,0.10
2018-12-05T01:19:13.240Z,0.07
2018-12-05T01:21:39.374Z,0.08
2018-12-05T01:24:05.507Z,0.06
2018-12-05T01:26:31.629Z,0.05
2018-12-05T01:28:57.765Z,0.04
2018-12-05T01:31:23.903Z,0.03
2018-12-05T01:33:50.052Z,0.00
2018-12-05T01:36:16.186Z,0.00
2018-12-05T01:38:42.323Z,-0.01
2018-12-05T01:41:08.442Z,-0.01
2018-12-05T01:43:40.613Z,-0.03
2018-12-05T01:46:06.728Z,-0.05
2018-12-05T01:48:32.853Z,-0.07
2018-12-05T01:50:58.986Z,-0.07
2018-12-05T01:53:25.182Z,-0.08
2018-12-05T01:55:51.305Z,-0.08
2018-12-05T01:58:17.455Z,-0.10
2018-12-05T02:00:43.596Z,-0.11
2018-12-05T02:03:09.714Z,-0.10
2018-12-05T02:05:35.855Z,-0.10
2018-12-05T02:08:01.969Z,-0.10
2018-12-05T02:10:28.131Z,-0.10
2018-12-05T02:12:54.264Z,-0.13
2018-12-05T02:15:20.380Z,-0.15
2018-12-05T02:17:46.517Z,-0.13
2018-12-05T02:20:12.662Z,-0.17
2018-12-05T02:22:38.788Z,-0.17
2018-12-05T02:25:05.171Z,-0.18
2018-12-05T02:27:31.302Z,-0.20
2018-12-05T02:29:57.577Z,-0.22
2018-12-05T02:32:23.699Z,-0.19
2018-12-05T02:34:49.841Z,-0.22
2018-12-05T02:37:15.963Z,-0.22
2018-12-05T02:39:42.108Z,-0.23
2018-12-05T02:42:08.250Z,-0.23
2018-12-05T02:44:34.375Z,-0.25
2018-12-05T02:47:00.488Z,-0.28
2018-12-05T02:49:26.811Z,-0.27
2018-12-05T02:51:52.929Z,-0.30
2018-12-05T02:54:19.071Z,-0.31
2018-12-05T02:56:45.244Z,-0.31
2018-12-05T02:59:11.351Z,-0.33
2018-12-05T03:01:37.496Z,-0.32
2018-12-05T03:04:03.648Z,-0.32
2018-12-05T03:06:29.779Z,-0.33
2018-12-05T03:08:55.893Z,-0.33
2018-12-05T03:11:22.016Z,-0.32
2018-12-05T03:13:48.137Z,-0.34
2018-12-05T03:16:14.276Z,-0.34
2018-12-05T03:18:40.403Z,-0.36
2018-12-05T03:21:06.559Z,-0.35
2018-12-05T03:23:32.664Z,-0.39
2018-12-05T03:25:58.932Z,-0.39
2018-12-05T03:28:25.113Z,-0.41
2018-12-05T03:30:51.319Z,-0.40
2018-12-05T03:33:17.436Z,-0.40
2018-12-05T03:35:43.583Z,-0.39
2018-12-05T03:38:09.716Z,-0.38
2018-12-05T03:40:35.842Z,-0.38
2018-12-05T03:43:01.992Z,-0.37
2018-12-05T03:45:31.611Z,-0.35
2018-12-05T03:47:58.107Z,-0.35
2018-12-05T03:50:24.358Z,-0.37
2018-12-05T03:52:50.488Z,-0.36
2018-12-05T03:55:16.619Z,-0.38
2018-12-05T03:57:42.746Z,-0.38
2018-12-05T04:00:08.931Z,-0.38
2018-12-05T04:02:35.175Z,-0.40
2018-12-05T04:05:01.358Z,-0.42
2018-12-05T04:07:27.616Z,-0.41
2018-12-05T04:09:53.888Z,-0.41
2018-12-05T04:12:20.038Z,-0.43
2018-12-05T04:14:46.151Z,-0.44
2018-12-05T04:17:12.322Z,-0.45
2018-12-05T04:19:38.583Z,-0.46
2018-12-05T04:22:04.851Z,-0.45
2018-12-05T04:24:30.976Z,-0.50
2018-12-05T04:26:57.121Z,-0.49
2018-12-05T04:29:23.243Z,-0.52
2018-12-05T04:31:49.362Z,-0.53
2018-12-05T04:34:15.483Z,-0.53
2018-12-05T04:36:41.623Z,-0.53
2018-12-05T04:39:07.879Z,-0.54
2018-12-05T04:41:34.023Z,-0.55
2018-12-05T04:44:01.989Z,-0.53
2018-12-05T04:46:28.305Z,-0.54
2018-12-05T04:48:54.421Z,-0.54
2018-12-05T04:51:20.590Z,-0.54
2018-12-05T04:53:46.723Z,-0.56
2018-12-05T04:56:12.854Z,-0.55
2018-12-05T04:58:39.002Z,-0.55
2018-12-05T05:01:05.139Z,-0.55
2018-12-05T05:03:31.274Z,-0.55
2018-12-05T05:05:57.375Z,-0.55
2018-12-05T05:08:23.515Z,-0.56
2018-12-05T05:10:49.646Z,-0.58
2018-12-05T05:13:15.779Z,-0.58
2018-12-05T05:15:41.905Z,-0.56
2018-12-05T05:18:08.059Z,-0.58
2018-12-05T05:20:34.190Z,-0.59
2018-12-05T05:23:00.319Z,-0.59
2018-12-05T05:25:26.479Z,-0.62
2018-12-05T05:27:52.627Z,-0.62
2018-12-05T05:30:18.747Z,-0.61
2018-12-05T05:32:46.931Z,-0.63
2018-12-05T05:35:13.052Z,-0.63
2018-12-05T05:37:39.232Z,-0.65
2018-12-05T05:40:05.475Z,-0.63
2018-12-05T05:42:31.587Z,-0.65
2018-12-05T05:44:57.720Z,-0.64
2018-12-05T05:47:23.852Z,-0.64
2018-12-05T05:49:49.987Z,-0.65
2018-12-05T05:52:16.103Z,-0.63
2018-12-05T05:54:42.214Z,-0.62
2018-12-05T05:57:08.337Z,-0.63
2018-12-05T05:59:34.475Z,-0.65
2018-12-05T06:02:00.621Z,-0.62
2018-12-05T06:04:26.731Z,-0.60
2018-12-05T06:06:52.847Z,-0.74
2018-12-05T06:09:18.978Z,-0.60
2018-12-05T06:11:45.095Z,-0.60
2018-12-05T06:14:11.237Z,-0.59
2018-12-05T06:16:37.376Z,-0.59
2018-12-05T06:19:05.289Z,-0.67
2018-12-05T06:21:31.711Z,-0.59
2018-12-05T06:23:57.868Z,-0.60
2018-12-05T06:26:23.982Z,-0.60
2018-12-05T06:28:50.106Z,-0.57
2018-12-05T06:31:16.255Z,-0.55
2018-12-05T06:33:42.380Z,-0.54
2018-12-05T06:36:09.411Z,-0.53
2018-12-05T06:38:35.544Z,-0.51
2018-12-05T06:41:01.690Z,-0.50
2018-12-05T06:43:27.827Z,-0.50
2018-12-05T06:45:53.939Z,-0.50
2018-12-05T06:48:20.099Z,-0.49
2018-12-05T06:50:46.231Z,-0.47
2018-12-05T06:53:12.350Z,-0.49
2018-12-05T06:55:39.205Z,-0.48
2018-12-05T06:58:05.632Z,-0.46
2018-12-05T07:00:31.796Z,-0.48
2018-12-05T07:02:57.927Z,-0.46
2018-12-05T07:05:24.533Z,-0.43
2018-12-05T07:07:50.682Z,-0.40
2018-12-05T07:10:16.830Z,-0.36
2018-12-05T07:12:42.965Z,-0.32
2018-12-05T07:15:09.102Z,-0.28
2018-12-05T07:17:35.244Z,-0.24
2018-12-05T07:20:01.733Z,-0.22
2018-12-05T07:22:27.873Z,-0.17
2018-12-05T07:24:53.999Z,-0.13
2018-12-05T07:27:20.141Z,-0.07
2018-12-05T07:29:46.284Z,-0.05
2018-12-05T07:32:12.435Z,-0.02
2018-12-05T07:34:38.559Z,-0.02
2018-12-05T07:37:04.695Z,-0.01
2018-12-05T07:39:30.824Z,-0.01
2018-12-05T07:41:56.967Z,-0.01
2018-12-05T07:44:23.115Z,-0.01
2018-12-05T07:46:49.252Z,0.00
2018-12-05T07:49:15.400Z,0.03
2018-12-05T07:51:41.573Z,0.02
2018-12-05T07:54:07.707Z,0.00
2018-12-05T07:56:33.838Z,0.01
2018-12-05T07:58:59.961Z,-0.11
2018-12-05T08:01:26.102Z,-0.01
2018-12-05T08:03:52.242Z,0.00
2018-12-05T08:06:18.404Z,0.01
2018-12-05T08:08:44.548Z,0.03
2018-12-05T08:11:10.710Z,0.04
2018-12-05T08:13:36.866Z,0.04
2018-12-05T08:16:03.137Z,0.04
2018-12-05T08:18:29.283Z,0.04
2018-12-05T08:20:55.416Z,0.04
2018-12-05T08:23:21.569Z,0.01
2018-12-05T08:25:47.740Z,0.03
2018-12-05T08:28:13.879Z,0.02
2018-12-05T08:30:40.031Z,0.02
2018-12-05T08:33:06.172Z,0.02
2018-12-05T08:35:32.371Z,0.01
2018-12-05T08:37:58.567Z,0.02
2018-12-05T08:40:24.711Z,0.02
2018-12-05T08:42:50.863Z,0.03
2018-12-05T08:45:17.132Z,0.03
2018-12-05T08:47:43.289Z,0.05
2018-12-05T08:50:09.459Z,0.05
2018-12-05T08:52:35.609Z,0.05
2018-12-05T08:55:01.764Z,0.05
2018-12-05T08:57:27.929Z,0.05
2018-12-05T08:59:54.075Z,0.05
2018-12-05T09:02:20.231Z,0.05
2018-12-05T09:04:46.371Z,0.06
2018-12-05T09:07:12.527Z,0.05
2018-12-05T09:09:38.687Z,0.05
2018-12-05T09:12:04.839Z,0.06
2018-12-05T09:14:30.978Z,0.08
2018-12-05T09:16:57.107Z,0.08
2018-12-05T09:19:23.255Z,0.08
2018-12-05T09:21:49.387Z,0.09
2018-12-05T09:24:15.550Z,0.07
2018-12-05T09:26:41.674Z,0.04
2018-12-05T09:29:07.816Z,0.09
2018-12-05T09:31:33.976Z,0.07
2018-12-05T09:34:00.137Z,0.07
2018-12-05T09:36:26.280Z,0.08
2018-12-05T09:38:52.419Z,0.09
2018-12-05T09:41:18.558Z,0.10
2018-12-05T09:43:44.723Z,0.10
2018-12-05T09:46:10.878Z,0.10
2018-12-05T09:48:37.039Z,0.09
2018-12-05T09:51:03.181Z,0.11
2018-12-05T09:53:29.333Z,0.13
2018-12-05T09:55:55.486Z,0.21
2018-12-05T09:58:21.652Z,0.18
2018-12-05T10:00:47.789Z,0.22
2018-12-05T10:03:13.908Z,0.23
2018-12-05T10:05:40.060Z,0.20
2018-12-05T10:08:06.203Z,0.20
2018-12-05T10:10:32.353Z,0.22
2018-12-05T10:12:58.508Z,0.23
2018-12-05T10:15:24.651Z,0.23
2018-12-05T10:17:50.794Z,0.23
2018-12-05T10:20:16.956Z,0.23
2018-12-05T10:22:43.069Z,0.23
2018-12-05T10:25:09.225Z,0.23
2018-12-05T10:27:35.381Z,0.24
2018-12-05T10:30:01.779Z,0.21
2018-12-05T10:32:27.959Z,0.24
2018-12-05T10:34:54.112Z,0.22
2018-12-05T10:37:20.235Z,0.20
2018-12-05T10:39:46.378Z,0.16
2018-12-05T10:42:12.787Z,0.12
2018-12-05T10:44:38.927Z,0.10
2018-12-05T10:47:05.076Z,0.12
2018-12-05T10:49:31.275Z,0.11
2018-12-05T10:51:57.455Z,0.05
2018-12-05T10:54:23.652Z,-0.02
2018-12-05T10:56:49.816Z,-0.03
2018-12-05T10:59:15.972Z,-0.07
2018-12-05T11:01:48.152Z,-0.11
2018-12-05T11:04:17.767Z,-0.11
2018-12-05T11:06:49.907Z,-0.14
2018-12-05T11:12:25.754Z,-0.22
2018-12-05T11:14:57.880Z,-0.30
2018-12-05T11:17:30.353Z,-0.30
2018-12-05T11:19:58.563Z,-0.34
2018-12-05T11:22:30.751Z,-0.39
2018-12-05T11:25:02.707Z,-0.42
2018-12-05T11:27:28.878Z,-0.48
2018-12-05T11:29:55.052Z,-0.53
2018-12-05T11:32:21.196Z,-0.57
2018-12-05T11:34:47.328Z,-0.60
2018-12-05T11:37:13.489Z,-0.60
2018-12-05T11:39:39.987Z,-0.65
2018-12-05T11:42:06.174Z,-0.73
2018-12-05T11:44:32.309Z,-0.78
2018-12-05T11:46:58.452Z,-0.85
2018-12-05T11:49:24.592Z,-0.92
2018-12-05T11:51:50.754Z,-1.03
2018-12-05T11:54:16.939Z,-1.08
2018-12-05T11:56:43.078Z,-1.10
2018-12-05T11:59:09.226Z,-1.12
2018-12-05T12:01:35.388Z,-1.13
2018-12-05T12:04:01.539Z,-1.15
2018-12-05T12:06:27.707Z,-1.17
2018-12-05T12:08:53.871Z,-1.19
2018-12-05T12:11:20.776Z,-1.25
2018-12-05T12:13:46.927Z,-1.30
2018-12-05T12:16:13.526Z,-1.41
2018-12-05T12:18:39.691Z,-1.45
2018-12-05T12:21:05.804Z,-1.54
2018-12-05T12:23:31.931Z,-1.60
2018-12-05T12:25:58.084Z,-1.64
2018-12-05T12:28:24.218Z,-1.65
2018-12-05T12:30:50.332Z,-1.70
2018-12-05T12:33:16.497Z,-1.75
2018-12-05T12:35:42.640Z,-1.76
2018-12-05T12:38:08.775Z,-1.77
2018-12-05T12:40:34.976Z,-1.80
2018-12-05T12:43:01.136Z,-1.78
2018-12-05T12:45:27.341Z,-1.78
2018-12-05T12:47:53.540Z,-1.74
2018-12-05T12:50:19.723Z,-1.72
2018-12-05T12:52:45.857Z,-1.74
2018-12-05T12:55:12.015Z,-1.81
2018-12-05T12:57:38.161Z,-1.87
2018-12-05T13:00:06.486Z,-1.95
2018-12-05T13:02:32.625Z,-1.98
2018-12-05T13:04:58.768Z,-2.01
2018-12-05T13:07:24.931Z,-2.03
2018-12-05T13:09:51.103Z,-1.99
2018-12-05T13:12:19.266Z,-1.96
2018-12-05T13:14:45.405Z,-1.98
2018-12-05T13:17:11.522Z,-1.99
2018-12-05T13:19:37.649Z,-2.01
2018-12-05T13:22:03.784Z,-2.07
2018-12-05T13:24:29.936Z,-2.11
2018-12-05T13:26:56.071Z,-2.16
2018-12-05T13:29:22.205Z,-2.17
2018-12-05T13:31:48.316Z,-2.20
2018-12-05T13:34:14.783Z,-2.23
2018-12-05T13:36:40.952Z,-2.26
2018-12-05T13:39:07.212Z,-2.27
2018-12-05T13:41:33.375Z,-2.30
2018-12-05T13:43:59.508Z,-2.36
2018-12-05T13:46:29.858Z,-2.41
2018-12-05T13:48:53.809Z,-2.47
2018-12-05T13:51:19.947Z,-2.52
2018-12-05T13:53:46.108Z,-2.57
2018-12-05T13:56:12.298Z,-2.57
2018-12-05T13:58:38.444Z,-2.64
2018-12-05T14:01:04.575Z,-2.71
2018-12-05T14:03:30.723Z,-2.78
2018-12-05T14:05:56.861Z,-2.81
2018-12-05T14:08:23.112Z,-2.85
2018-12-05T14:10:49.247Z,-2.82
2018-12-05T14:13:15.396Z,-2.86
2018-12-05T14:15:41.541Z,-2.90
2018-12-05T14:18:07.679Z,-2.96
2018-12-05T14:20:33.847Z,-3.03
2018-12-05T14:22:59.991Z,-3.10
2018-12-05T14:25:26.148Z,-3.13
2018-12-05T14:27:52.301Z,-3.03
2018-12-05T14:30:18.436Z,-3.07
2018-12-05T14:32:44.601Z,-3.10
2018-12-05T14:35:10.746Z,-3.18
2018-12-05T14:37:36.916Z,-3.24
2018-12-05T14:40:04.397Z,-3.28
2018-12-05T14:42:30.556Z,-3.32
2018-12-05T14:44:56.697Z,-3.29
2018-12-05T14:47:22.856Z,-3.29
2018-12-05T14:49:49.003Z,-3.30
2018-12-05T14:52:15.140Z,-3.40
2018-12-05T14:54:41.267Z,-3.45
2018-12-05T14:57:07.464Z,-3.53
2018-12-05T14:59:33.625Z,-3.56
2018-12-05T15:01:59.797Z,-4.44
2018-12-05T15:04:25.931Z,-3.61
2018-12-05T15:06:52.099Z,-3.57
2018-12-05T15:09:18.268Z,-3.55
2018-12-05T15:11:44.490Z,-3.60
2018-12-05T15:14:10.646Z,-3.61
2018-12-05T15:16:36.816Z,-3.57
2018-12-05T15:19:03.200Z,-3.53
2018-12-05T15:21:29.384Z,-3.55
2018-12-05T15:23:55.563Z,-3.52
2018-12-05T15:26:21.716Z,-3.53
2018-12-05T15:28:47.880Z,-3.52
2018-12-05T15:31:14.027Z,-3.54
2018-12-05T15:33:40.317Z,-3.58
2018-12-05T15:36:06.498Z,-3.60
2018-12-05T15:38:32.672Z,-3.51
2018-12-05T15:40:58.831Z,-3.57
2018-12-05T15:43:25.194Z,-3.60
2018-12-05T15:45:51.366Z,-3.62
2018-12-05T15:48:17.544Z,-3.62
2018-12-05T15:50:43.707Z,-3.62
2018-12-05T15:53:09.909Z,-3.59
2018-12-05T15:55:36.095Z,-3.61
2018-12-05T15:58:02.258Z,-3.62
2018-12-05T16:00:28.420Z,-3.62
2018-12-05T16:02:54.620Z,-3.66
2018-12-05T16:05:21.028Z,-3.68
2018-12-05T16:07:47.539Z,-3.68
2018-12-05T16:10:13.669Z,-3.71
2018-12-05T16:12:39.848Z,-3.74
2018-12-05T16:15:06.386Z,-3.80
2018-12-05T16:17:32.567Z,-3.87
2018-12-05T16:19:58.777Z,-3.84
2018-12-05T16:22:24.907Z,-3.76
2018-12-05T16:24:51.148Z,-3.77
2018-12-05T16:27:17.324Z,-3.83
2018-12-05T16:29:43.477Z,-3.81
2018-12-05T16:32:09.670Z,-3.81
2018-12-05T16:34:35.819Z,-3.82
2018-12-05T16:37:01.948Z,-3.83
2018-12-05T16:39:28.129Z,-3.84
2018-12-05T16:41:54.260Z,-3.84
2018-12-05T16:44:21.326Z,-3.86
2018-12-05T16:46:47.464Z,-3.89
2018-12-05T16:49:13.629Z,-3.85
2018-12-05T16:51:39.779Z,-3.83
2018-12-05T16:54:06.430Z,-3.87
2018-12-05T16:56:32.605Z,-3.85
2018-12-05T16:58:58.796Z,-3.82
2018-12-05T17:01:25.009Z,-3.78
2018-12-05T17:03:51.167Z,-3.74
2018-12-05T17:06:17.361Z,-3.72
2018-12-05T17:08:43.507Z,-3.75
2018-12-05T17:11:09.668Z,-3.78
2018-12-05T17:13:37.872Z,-3.81
2018-12-05T17:16:04.037Z,-3.86
2018-12-05T17:18:30.285Z,-3.88
2018-12-05T17:20:56.437Z,-3.86
2018-12-05T17:23:22.591Z,-3.86
2018-12-05T17:25:48.751Z,-3.88
2018-12-05T17:28:14.876Z,-3.90
2018-12-05T17:30:41.033Z,-3.92
2018-12-05T17:33:07.235Z,-3.92
2018-12-05T17:35:33.393Z,-4.00
2018-12-05T17:37:59.521Z,-4.03
2018-12-05T17:40:25.723Z,-4.08
2018-12-05T17:42:51.898Z,-4.17
2018-12-05T17:45:18.112Z,-4.21
2018-12-05T17:47:44.281Z,-4.29
2018-12-05T17:50:10.494Z,-4.32
2018-12-05T17:52:36.648Z,-4.34
2018-12-05T17:55:03.124Z,-4.37
2018-12-05T17:57:29.306Z,-4.40
2018-12-05T17:59:55.466Z,-4.44
2018-12-05T18:02:21.636Z,-4.47
2018-12-05T18:04:47.784Z,-4.51
2018-12-05T18:07:13.989Z,-4.54
2018-12-05T18:09:40.134Z,-4.58
2018-12-05T18:12:06.370Z,-4.63
2018-12-05T18:14:32.537Z,-4.67
2018-12-05T18:16:58.698Z,-4.72
2018-12-05T18:19:24.871Z,-4.76
2018-12-05T18:21:51.003Z,-4.76
2018-12-05T18:24:17.220Z,-4.75
2018-12-05T18:26:43.367Z,-4.77
2018-12-05T18:29:09.535Z,-4.76
2018-12-05T18:31:35.724Z,-4.74
2018-12-05T18:34:01.888Z,-4.75
2018-12-05T18:36:28.169Z,-4.80
2018-12-05T18:38:54.402Z,-4.88
2018-12-05T18:41:20.633Z,-4.79
2018-12-05T18:43:46.796Z,-4.79
2018-12-05T18:46:12.968Z,-4.76
2018-12-05T18:48:39.170Z,-4.80
2018-12-05T18:51:05.354Z,-4.81
2018-12-05T18:53:31.565Z,-4.77
2018-12-05T18:55:57.740Z,-4.76
2018-12-05T18:58:23.896Z,-4.68
2018-12-05T19:00:50.127Z,-4.57
2018-12-05T19:03:16.865Z,-4.58
2018-12-05T19:05:43.013Z,-4.59
2018-12-05T19:08:09.190Z,-4.52
2018-12-05T19:10:35.411Z,-4.55
2018-12-05T19:13:01.619Z,-4.54
2018-12-05T19:15:27.795Z,-4.55
2018-12-05T19:17:53.959Z,-4.61
2018-12-05T19:20:21.842Z,-4.63
2018-12-05T19:22:48.083Z,-4.62
2018-12-05T19:25:14.244Z,-4.60
2018-12-05T19:27:40.426Z,-4.63
2018-12-05T19:30:07.040Z,-4.68
2018-12-05T19:32:33.195Z,-4.72
2018-12-05T19:34:59.364Z,-4.74
2018-12-05T19:37:25.571Z,-4.76
2018-12-05T19:39:51.754Z,-4.77
2018-12-05T19:42:17.947Z,-4.82
2018-12-05T19:44:44.122Z,-4.84
2018-12-05T19:47:10.295Z,-4.93
2018-12-05T19:49:36.526Z,-4.94
2018-12-05T19:52:02.844Z,-4.96
2018-12-05T19:54:29.006Z,-5.02
2018-12-05T19:56:55.260Z,-5.07
2018-12-05T19:59:21.431Z,-5.08
2018-12-05T20:01:47.614Z,-5.08
2018-12-05T20:04:13.877Z,-5.03
2018-12-05T20:06:40.056Z,-4.99
2018-12-05T20:09:06.710Z,-4.93
2018-12-05T20:11:32.865Z,-4.94
2018-12-05T20:13:59.056Z,-4.99
2018-12-05T20:16:25.221Z,-5.00
2018-12-05T20:18:51.389Z,-5.00
2018-12-05T20:21:17.657Z,-5.03
2018-12-05T20:23:43.805Z,-5.07
2018-12-05T20:26:10.048Z,-5.12
2018-12-05T20:28:36.186Z,-5.14
2018-12-05T20:31:02.349Z,-5.18
2018-12-05T20:33:28.499Z,-5.22
2018-12-05T20:35:54.630Z,-5.25
2018-12-05T20:38:20.827Z,-5.29
2018-12-05T20:40:46.985Z,-5.33
2018-12-05T20:43:13.139Z,-5.39
2018-12-05T20:45:39.415Z,-5.46
2018-12-05T20:48:06.474Z,-5.50
2018-12-05T20:50:32.674Z,-5.54
2018-12-05T20:52:58.795Z,-5.59
2018-12-05T20:55:24.931Z,-5.61
2018-12-05T20:57:51.079Z,-5.62
2018-12-05T21:00:17.213Z,-5.78
2018-12-05T21:02:43.355Z,-5.65
2018-12-05T21:05:09.515Z,-5.69
2018-12-05T21:07:35.664Z,-5.77
2018-12-05T21:10:01.822Z,-5.78
2018-12-05T21:12:27.959Z,-5.82
2018-12-05T21:14:55.015Z,-5.85
2018-12-05T21:17:21.177Z,-5.92
2018-12-05T21:19:47.311Z,-5.90
2018-12-05T21:22:13.439Z,-5.93
2018-12-05T21:24:39.732Z,-5.89
2018-12-05T21:27:06.035Z,-5.88
2018-12-05T21:29:32.466Z,-5.86
2018-12-05T21:31:58.620Z,-5.84
2018-12-05T21:34:24.907Z,-5.79
2018-12-05T21:36:51.103Z,-5.76
2018-12-05T21:39:17.316Z,-5.71
2018-12-05T21:41:43.635Z,-5.63
2018-12-05T21:44:09.780Z,-5.52
2018-12-05T21:46:36.932Z,-5.34
2018-12-05T21:49:03.188Z,-5.05
2018-12-05T21:51:29.331Z,-4.87
2018-12-05T21:53:56.101Z,-4.82
2018-12-05T21:56:22.682Z,-4.82
2018-12-05T21:58:48.872Z,-4.72
2018-12-05T22:01:15.048Z,-4.60
2018-12-05T22:03:41.213Z,-4.54
2018-12-05T22:06:07.351Z,-4.44
2018-12-05T22:08:33.523Z,-4.39
2018-12-05T22:10:59.663Z,-4.25
2018-12-05T22:13:25.810Z,-3.96
2018-12-05T22:15:51.931Z,-3.77
2018-12-05T22:18:21.566Z,-3.67
2018-12-05T22:20:47.698Z,-3.63
2018-12-05T22:23:15.624Z,-3.52
2018-12-05T22:25:41.763Z,-3.44
2018-12-05T22:28:07.928Z,-3.33
2018-12-05T22:30:34.078Z,-3.31
2018-12-05T22:33:00.220Z,-3.30
2018-12-05T22:35:26.360Z,-3.28
2018-12-05T22:37:52.499Z,-3.23
2018-12-05T22:40:18.627Z,-3.23
2018-12-05T22:42:44.804Z,-3.21
2018-12-05T22:45:11.273Z,-3.16
2018-12-05T22:47:37.468Z,-3.10
2018-12-05T22:50:04.645Z,-3.12
2018-12-05T22:52:30.801Z,-3.09
2018-12-05T22:54:56.935Z,-3.06
2018-12-05T22:57:23.071Z,-3.13
2018-12-05T22:59:49.229Z,-3.16
2018-12-05T23:02:15.492Z,-3.16
2018-12-05T23:04:41.655Z,-3.16
2018-12-05T23:07:07.787Z,-3.17
2018-12-05T23:09:33.943Z,-3.14
2018-12-05T23:12:00.098Z,-3.18
2018-12-05T23:14:26.265Z,-3.14
2018-12-05T23:16:52.411Z,-3.19
2018-12-05T23:19:18.563Z,-3.17
2018-12-05T23:21:44.706Z,-3.14
2018-12-05T23:24:10.847Z,-3.09
2018-12-05T23:26:37.012Z,-3.10
2018-12-05T23:29:03.181Z,-3.13
2018-12-05T23:31:29.321Z,-3.13
2018-12-05T23:33:55.482Z,-3.21
2018-12-05T23:36:21.631Z,-3.26
2018-12-05T23:38:47.777Z,-3.32
2018-12-05T23:41:13.913Z,-3.23
2018-12-05T23:43:40.057Z,-3.13
2018-12-05T23:46:06.234Z,-3.05
2018-12-05T23:48:32.423Z,-2.88
2018-12-05T23:50:58.559Z,-2.82
2018-12-05T23:53:24.718Z,-2.87
2018-12-05T23:55:50.863Z,-2.85
2018-12-05T23:58:16.992Z,-2.91
